createdAt,value
2023-03-20T00:00:42.788Z,3.10
2023-03-20T00:03:14.938Z,3.22
2023-03-20T00:08:41.097Z,2.80
2023-03-20T00:11:34.021Z,2.95
2023-03-20T00:14:09.913Z,3.00
2023-03-20T00:16:46.340Z,3.20
2023-03-20T00:19:24.088Z,2.90
2023-03-20T00:21:58.264Z,3.00
2023-03-20T00:24:30.714Z,3.22
2023-03-20T00:27:03.649Z,2.90
2023-03-20T00:29:36.379Z,3.05
2023-03-20T00:32:15.861Z,2.80
2023-03-20T00:34:47.728Z,3.00
2023-03-20T00:37:20.541Z,2.72
2023-03-20T00:39:52.742Z,2.80
2023-03-20T00:42:26.358Z,2.60
2023-03-20T00:44:59.591Z,2.88
2023-03-20T00:47:36.454Z,2.40
2023-03-20T00:50:27.445Z,2.67
2023-03-20T00:53:01.034Z,2.88
2023-03-20T00:55:33.490Z,2.63
2023-03-20T00:58:07.035Z,2.63
2023-03-20T01:00:42.829Z,2.40
2023-03-20T01:03:25.687Z,2.90
2023-03-20T01:05:57.647Z,2.55
2023-03-20T01:08:30.369Z,2.80
2023-03-20T01:11:02.785Z,2.88
2023-03-20T01:13:40.712Z,2.97
2023-03-20T01:16:23.277Z,3.10
2023-03-20T01:18:57.165Z,3.25
2023-03-20T01:21:29.318Z,2.85
2023-03-20T01:24:02.272Z,3.03
2023-03-20T01:26:43.337Z,3.13
2023-03-20T01:29:28.009Z,3.30
2023-03-20T01:31:59.968Z,3.35
2023-03-20T01:34:33.062Z,3.00
2023-03-20T01:37:13.754Z,2.90
2023-03-20T01:39:46.970Z,3.40
2023-03-20T01:42:38.532Z,3.10
2023-03-20T01:45:23.391Z,3.00
2023-03-20T01:47:56.070Z,3.13
2023-03-20T01:50:34.792Z,3.03
2023-03-20T01:53:21.998Z,3.07
2023-03-20T01:56:01.054Z,3.00
2023-03-20T01:58:49.367Z,3.13
2023-03-20T02:01:21.585Z,3.10
2023-03-20T02:03:57.766Z,3.10
2023-03-20T02:07:00.657Z,2.90
2023-03-20T02:09:56.013Z,3.25
2023-03-20T02:12:39.997Z,3.00
2023-03-20T02:15:16.863Z,3.03
2023-03-20T02:18:04.311Z,3.70
2023-03-20T02:21:12.939Z,3.60
2023-03-20T02:24:30.830Z,3.00
2023-03-20T02:27:07.772Z,3.08
2023-03-20T02:29:57.965Z,3.05
2023-03-20T02:33:20.027Z,3.35
2023-03-20T02:36:13.434Z,3.10
2023-03-20T02:39:17.220Z,3.05
2023-03-20T02:42:35.229Z,3.50
2023-03-20T02:45:47.951Z,3.42
2023-03-20T02:48:57.648Z,3.38
2023-03-20T02:51:56.884Z,2.80
2023-03-20T02:54:49.970Z,2.78
2023-03-20T02:57:38.010Z,2.55
2023-03-20T03:00:28.667Z,2.90
2023-03-20T03:03:17.897Z,2.72
2023-03-20T03:06:10.993Z,2.97
2023-03-20T03:08:48.381Z,3.03
2023-03-20T03:11:21.487Z,2.70
2023-03-20T03:13:58.805Z,3.00
2023-03-20T03:16:36.420Z,2.70
2023-03-20T03:19:23.133Z,3.30
2023-03-20T03:21:56.032Z,2.63
2023-03-20T03:24:41.266Z,3.00
2023-03-20T03:27:24.118Z,2.30
2023-03-20T03:30:08.139Z,2.55
2023-03-20T03:32:50.263Z,2.20
2023-03-20T03:35:24.570Z,2.80
2023-03-20T03:38:27.433Z,2.50
2023-03-20T03:41:26.791Z,3.03
2023-03-20T03:44:11.813Z,2.80
2023-03-20T03:46:58.865Z,2.87
2023-03-20T03:49:38.884Z,3.08
2023-03-20T03:52:16.860Z,3.00
2023-03-20T03:55:04.871Z,2.60
2023-03-20T03:57:50.930Z,3.00
2023-03-20T04:00:27.798Z,2.67
2023-03-20T04:03:00.275Z,3.22
2023-03-20T04:05:35.523Z,2.92
2023-03-20T04:08:09.332Z,3.10
2023-03-20T04:10:41.429Z,3.00
2023-03-20T04:13:16.784Z,2.80
2023-03-20T04:15:49.598Z,2.72
2023-03-20T04:18:22.178Z,2.90
2023-03-20T04:20:55.154Z,2.90
2023-03-20T04:23:27.169Z,2.90
2023-03-20T04:26:01.755Z,3.00
2023-03-20T04:28:35.356Z,2.80
2023-03-20T04:31:28.565Z,2.95
2023-03-20T04:34:20.020Z,2.80
2023-03-20T04:37:30.523Z,2.85
2023-03-20T04:40:11.984Z,3.17
2023-03-20T04:42:47.217Z,2.95
2023-03-20T04:45:20.863Z,3.30
2023-03-20T04:47:53.212Z,3.47
2023-03-20T04:50:29.168Z,3.30
2023-03-20T04:53:01.668Z,3.57
2023-03-20T04:55:35.490Z,3.20
2023-03-20T04:58:07.741Z,3.10
2023-03-20T05:00:40.890Z,3.20
2023-03-20T05:03:13.320Z,2.70
2023-03-20T05:05:46.516Z,2.83
2023-03-20T05:08:19.151Z,2.88
2023-03-20T05:10:53.145Z,3.05
2023-03-20T05:13:44.316Z,2.92
2023-03-20T05:16:31.089Z,3.15
2023-03-20T05:19:18.150Z,3.07
2023-03-20T05:22:10.307Z,3.10
2023-03-20T05:25:02.372Z,3.30
2023-03-20T05:28:07.067Z,2.67
2023-03-20T05:30:56.566Z,2.80
2023-03-20T05:33:59.639Z,2.93
2023-03-20T05:36:43.249Z,2.72
2023-03-20T05:39:33.370Z,2.70
2023-03-20T05:42:32.866Z,2.78
2023-03-20T05:45:08.496Z,2.92
2023-03-20T05:47:47.270Z,3.33
2023-03-20T05:50:50.230Z,2.90
2023-03-20T05:53:41.583Z,2.50
2023-03-20T05:56:50.115Z,2.60
2023-03-20T05:59:28.488Z,2.70
2023-03-20T06:05:35.193Z,2.30
2023-03-20T06:08:31.073Z,2.55
2023-03-20T06:11:05.163Z,2.78
2023-03-20T06:13:41.741Z,2.55
2023-03-20T06:16:13.813Z,2.83
2023-03-20T06:18:46.933Z,3.22
2023-03-20T06:21:19.469Z,3.50
2023-03-20T06:24:11.597Z,3.90
2023-03-20T06:26:44.861Z,4.95
2023-03-20T06:29:18.645Z,4.80
2023-03-20T06:31:53.038Z,4.82
2023-03-20T06:34:32.344Z,4.40
2023-03-20T06:37:05.088Z,4.45
2023-03-20T06:39:37.538Z,4.13
2023-03-20T06:42:15.090Z,4.00
2023-03-20T06:44:50.581Z,4.05
2023-03-20T06:47:44.258Z,4.35
2023-03-20T06:50:18.717Z,4.35
2023-03-20T06:52:52.310Z,4.07
2023-03-20T06:55:50.487Z,3.05
2023-03-20T06:58:22.983Z,2.83
2023-03-20T07:00:57.795Z,3.50
2023-03-20T07:03:30.158Z,3.38
2023-03-20T07:06:05.423Z,3.63
2023-03-20T07:08:37.951Z,2.90
2023-03-20T07:11:11.818Z,3.03
2023-03-20T07:13:44.053Z,2.13
2023-03-20T07:16:30.265Z,3.03
2023-03-20T07:19:04.556Z,3.05
2023-03-20T07:21:40.364Z,3.10
2023-03-20T07:24:13.179Z,3.85
2023-03-20T07:26:48.632Z,3.78
2023-03-20T07:29:20.594Z,3.50
2023-03-20T07:34:55.525Z,3.30
2023-03-20T07:37:28.302Z,3.28
2023-03-20T07:40:05.984Z,3.40
2023-03-20T07:42:40.506Z,3.22
2023-03-20T07:48:12.689Z,3.33
2023-03-20T07:51:08.208Z,4.20
2023-03-20T07:53:40.223Z,4.32
2023-03-20T07:56:18.235Z,4.00
2023-03-20T07:58:50.581Z,4.72
2023-03-20T08:01:46.905Z,4.15
2023-03-20T08:04:23.363Z,4.10
2023-03-20T08:06:55.377Z,4.03
2023-03-20T08:09:28.740Z,4.32
2023-03-20T08:12:01.284Z,4.15
2023-03-20T08:14:36.400Z,4.20
2023-03-20T08:17:15.439Z,3.80
2023-03-20T08:23:03.210Z,3.70
2023-03-20T08:25:36.526Z,3.92
2023-03-20T08:28:09.447Z,3.78
2023-03-20T08:30:43.642Z,3.53
2023-03-20T08:33:37.022Z,3.35
2023-03-20T08:36:13.792Z,3.42
2023-03-20T08:38:48.264Z,3.65
2023-03-20T08:41:21.827Z,3.57
2023-03-20T08:44:14.473Z,3.38
2023-03-20T08:46:48.366Z,3.25
2023-03-20T08:49:23.666Z,5.28
2023-03-20T08:51:56.654Z,3.70
2023-03-20T08:54:29.086Z,3.22
2023-03-20T08:57:01.448Z,3.40
2023-03-20T08:59:34.023Z,3.70
2023-03-20T09:02:08.251Z,3.33
2023-03-20T09:04:41.857Z,3.10
2023-03-20T09:07:16.096Z,3.20
2023-03-20T09:09:50.155Z,2.88
2023-03-20T09:12:23.890Z,2.58
2023-03-20T09:14:55.806Z,2.30
2023-03-20T09:17:29.942Z,2.22
2023-03-20T09:20:02.084Z,2.25
2023-03-20T09:22:36.404Z,2.50
2023-03-20T09:25:08.942Z,2.30
2023-03-20T09:27:41.973Z,1.88
2023-03-20T09:30:35.888Z,1.92
2023-03-20T09:33:09.128Z,2.58
2023-03-20T09:35:43.656Z,2.77
2023-03-20T09:38:17.530Z,2.70
2023-03-20T09:41:05.211Z,2.60
2023-03-20T09:44:28.346Z,3.00
2023-03-20T09:47:20.363Z,3.17
2023-03-20T09:53:19.085Z,2.95
2023-03-20T09:55:53.950Z,2.60
2023-03-20T09:58:28.291Z,3.30
2023-03-20T10:01:04.888Z,2.85
2023-03-20T10:04:09.019Z,3.42
2023-03-20T10:06:43.010Z,2.80
2023-03-20T10:09:28.100Z,3.00
2023-03-20T10:13:12.224Z,3.33
2023-03-20T10:16:16.742Z,3.20
2023-03-20T10:19:40.134Z,3.30
2023-03-20T10:22:27.458Z,3.55
2023-03-20T10:28:48.419Z,3.05
2023-03-20T10:32:05.976Z,3.40
2023-03-20T10:35:08.932Z,2.95
2023-03-20T10:37:49.872Z,2.40
2023-03-20T10:40:36.667Z,2.60
2023-03-20T10:43:19.128Z,2.33
2023-03-20T10:46:45.571Z,2.33
2023-03-20T10:49:51.617Z,2.37
2023-03-20T10:52:29.745Z,2.78
2023-03-20T10:55:10.439Z,2.30
2023-03-20T10:57:51.594Z,2.20
2023-03-20T11:00:27.055Z,1.85
2023-03-20T11:02:59.443Z,2.30
2023-03-20T11:05:36.940Z,2.45
2023-03-20T11:08:13.886Z,2.72
2023-03-20T11:10:46.308Z,2.90
2023-03-20T11:13:34.805Z,3.58
2023-03-20T11:16:31.918Z,3.10
2023-03-20T11:19:10.460Z,3.17
2023-03-20T11:21:50.688Z,2.40
2023-03-20T11:24:45.009Z,2.10
2023-03-20T11:27:26.344Z,2.47
2023-03-20T11:30:01.379Z,2.50
2023-03-20T11:32:41.020Z,2.78
2023-03-20T11:35:18.955Z,3.28
2023-03-20T11:37:55.072Z,3.10
2023-03-20T11:40:32.456Z,2.60
2023-03-20T11:43:18.936Z,2.73
2023-03-20T11:45:57.100Z,2.40
2023-03-20T11:48:47.874Z,2.67
2023-03-20T11:51:21.755Z,3.00
2023-03-20T11:54:07.499Z,3.50
2023-03-20T11:56:54.333Z,3.10
2023-03-20T11:59:35.440Z,2.70
2023-03-20T12:02:22.783Z,2.55
2023-03-20T12:05:00.495Z,2.85
2023-03-20T12:07:38.560Z,2.75
2023-03-20T12:10:15.185Z,2.60
2023-03-20T12:13:29.184Z,2.25
2023-03-20T12:16:06.393Z,2.85
2023-03-20T12:18:49.501Z,2.67
2023-03-20T12:21:43.482Z,2.70
2023-03-20T12:24:46.852Z,2.90
2023-03-20T12:27:31.490Z,2.25
2023-03-20T12:30:10.088Z,2.80
2023-03-20T12:32:45.209Z,2.75
2023-03-20T12:35:32.852Z,2.75
2023-03-20T12:38:30.291Z,2.60
2023-03-20T12:41:16.172Z,3.00
2023-03-20T12:44:08.659Z,2.70
2023-03-20T12:46:51.824Z,2.80
2023-03-20T12:49:48.263Z,2.85
2023-03-20T12:53:01.594Z,2.73
2023-03-20T12:55:54.703Z,2.72
2023-03-20T12:58:52.865Z,3.03
2023-03-20T13:02:16.308Z,2.88
2023-03-20T13:05:12.646Z,2.50
2023-03-20T13:08:12.037Z,2.20
2023-03-20T13:11:33.754Z,2.53
2023-03-20T13:14:57.195Z,2.53
2023-03-20T13:17:39.415Z,2.50
2023-03-20T13:20:25.558Z,2.20
2023-03-20T13:23:12.418Z,2.70
2023-03-20T13:26:20.094Z,2.60
2023-03-20T13:29:34.510Z,2.80
2023-03-20T13:32:41.515Z,2.63
2023-03-20T13:35:23.696Z,2.40
2023-03-20T13:38:01.582Z,2.50
2023-03-20T13:40:44.239Z,2.28
2023-03-20T13:43:46.694Z,2.35
2023-03-20T13:46:25.543Z,2.35
2023-03-20T13:49:04.805Z,2.25
2023-03-20T13:52:07.725Z,2.30
2023-03-20T13:54:59.256Z,2.15
2023-03-20T13:57:52.637Z,2.15
2023-03-20T14:00:50.401Z,2.50
2023-03-20T14:03:28.585Z,2.70
2023-03-20T14:06:01.165Z,2.43
2023-03-20T14:08:38.123Z,2.28
2023-03-20T14:11:35.793Z,2.55
2023-03-20T14:14:20.050Z,2.60
2023-03-20T14:17:09.068Z,2.20
2023-03-20T14:19:41.714Z,2.20
2023-03-20T14:22:21.587Z,2.30
2023-03-20T14:25:05.185Z,2.40
2023-03-20T14:28:13.344Z,2.30
2023-03-20T14:30:52.613Z,2.70
2023-03-20T14:33:27.546Z,2.20
2023-03-20T14:36:21.222Z,2.25
2023-03-20T14:39:19.776Z,1.95
2023-03-20T14:42:51.974Z,2.42
2023-03-20T14:45:45.657Z,2.33
2023-03-20T14:48:43.119Z,2.17
2023-03-20T14:51:41.256Z,2.33
2023-03-20T14:54:31.424Z,2.03
2023-03-20T14:57:19.937Z,1.90
2023-03-20T14:59:52.659Z,2.10
2023-03-20T15:02:35.273Z,1.90
2023-03-20T15:05:19.980Z,1.85
2023-03-20T15:07:52.705Z,2.50
2023-03-20T15:10:28.950Z,2.13
2023-03-20T15:13:04.637Z,2.30
2023-03-20T15:15:37.651Z,2.60
2023-03-20T15:18:14.294Z,2.15
2023-03-20T15:20:47.324Z,2.08
2023-03-20T15:23:19.872Z,2.00
2023-03-20T15:25:52.893Z,2.10
2023-03-20T15:28:27.109Z,2.10
2023-03-20T15:31:00.045Z,2.20
2023-03-20T15:33:41.893Z,2.10
2023-03-20T15:36:25.567Z,2.20
2023-03-20T15:39:29.209Z,2.03
2023-03-20T15:42:05.792Z,2.00
2023-03-20T15:44:40.330Z,2.38
2023-03-20T15:47:22.894Z,2.00
2023-03-20T15:50:04.790Z,2.10
2023-03-20T15:52:42.724Z,2.30
2023-03-20T15:55:20.318Z,2.40
2023-03-20T15:57:56.577Z,2.13
2023-03-20T16:00:39.353Z,2.17
2023-03-20T16:03:19.109Z,2.58
2023-03-20T16:05:52.553Z,2.20
2023-03-20T16:08:33.414Z,2.40
2023-03-20T16:11:17.884Z,2.13
2023-03-20T16:13:51.519Z,2.45
2023-03-20T16:16:25.268Z,2.30
2023-03-20T16:18:59.375Z,2.15
2023-03-20T16:21:37.632Z,2.00
2023-03-20T16:24:17.021Z,2.20
2023-03-20T16:26:53.162Z,2.30
2023-03-20T16:29:28.037Z,2.10
2023-03-20T16:32:06.280Z,1.85
2023-03-20T16:34:39.659Z,2.43
2023-03-20T16:37:38.246Z,2.58
2023-03-20T16:40:33.145Z,2.03
2023-03-20T16:43:32.164Z,2.47
2023-03-20T16:46:07.384Z,2.08
2023-03-20T16:48:39.849Z,2.40
2023-03-20T16:51:29.754Z,2.40
2023-03-20T16:54:01.786Z,2.47
2023-03-20T16:56:38.355Z,2.78
2023-03-20T16:59:17.537Z,2.45
2023-03-20T17:01:53.280Z,2.03
2023-03-20T17:04:35.464Z,2.83
2023-03-20T17:07:19.415Z,2.78
2023-03-20T17:10:18.830Z,3.20
2023-03-20T17:12:54.498Z,3.03
2023-03-20T17:15:27.299Z,2.58
2023-03-20T17:17:59.188Z,2.53
2023-03-20T17:20:32.096Z,3.10
2023-03-20T17:23:05.095Z,2.65
2023-03-20T17:25:37.814Z,2.60
2023-03-20T17:28:24.119Z,2.70
2023-03-20T17:30:56.426Z,2.47
2023-03-20T17:33:29.791Z,2.55
2023-03-20T17:36:02.173Z,2.55
2023-03-20T17:38:34.774Z,3.00
2023-03-20T17:41:17.858Z,2.88
2023-03-20T17:43:51.919Z,2.85
2023-03-20T17:46:30.344Z,3.50
2023-03-20T17:49:13.359Z,2.90
2023-03-20T17:51:45.852Z,3.10
2023-03-20T17:54:18.801Z,2.53
2023-03-20T17:56:50.696Z,2.90
2023-03-20T17:59:25.130Z,2.67
2023-03-20T18:01:57.350Z,2.90
2023-03-20T18:04:29.930Z,2.97
2023-03-20T18:07:02.727Z,3.20
2023-03-20T18:09:35.328Z,2.33
2023-03-20T18:12:12.586Z,3.30
2023-03-20T18:14:46.941Z,3.72
2023-03-20T18:17:18.952Z,3.45
2023-03-20T18:19:51.950Z,3.40
2023-03-20T18:22:23.922Z,3.13
2023-03-20T18:24:56.936Z,2.90
2023-03-20T18:27:29.239Z,3.40
2023-03-20T18:30:01.850Z,3.30
2023-03-20T18:32:33.833Z,3.58
2023-03-20T18:35:06.919Z,3.13
2023-03-20T18:37:41.249Z,3.35
2023-03-20T18:40:27.096Z,3.40
2023-03-20T18:42:59.600Z,4.00
2023-03-20T18:45:32.681Z,3.78
2023-03-20T18:48:04.634Z,3.10
2023-03-20T18:50:43.425Z,3.58
2023-03-20T18:53:15.560Z,3.72
2023-03-20T18:55:48.517Z,3.72
2023-03-20T18:58:27.866Z,3.22
2023-03-20T19:01:00.582Z,3.10
2023-03-20T19:03:39.569Z,3.75
2023-03-20T19:06:18.534Z,3.70
2023-03-20T19:08:52.361Z,3.90
2023-03-20T19:11:24.497Z,4.03
2023-03-20T19:13:57.139Z,3.53
2023-03-20T19:16:31.887Z,3.50
2023-03-20T19:19:06.947Z,3.58
2023-03-20T19:21:38.859Z,3.60
2023-03-20T19:24:12.102Z,3.15
2023-03-20T19:26:44.008Z,4.00
2023-03-20T19:29:18.310Z,3.40
2023-03-20T19:31:50.438Z,3.13
2023-03-20T19:35:00.774Z,3.22
2023-03-20T19:37:15.225Z,3.33
2023-03-20T19:39:47.808Z,2.95
2023-03-20T19:42:47.493Z,3.20
2023-03-20T19:45:12.271Z,3.67
2023-03-20T19:47:44.735Z,3.60
2023-03-20T19:50:31.665Z,3.75
2023-03-20T19:53:08.163Z,3.67
2023-03-20T19:55:40.933Z,3.90
2023-03-20T19:58:13.135Z,3.88
2023-03-20T20:00:58.894Z,4.07
2023-03-20T20:03:32.804Z,3.90
2023-03-20T20:06:05.002Z,4.47
2023-03-20T20:08:48.081Z,4.68
2023-03-20T20:11:21.904Z,4.45
2023-03-20T20:14:13.406Z,4.63
2023-03-20T20:16:48.793Z,4.28
2023-03-20T20:19:21.467Z,4.20
2023-03-20T20:24:45.966Z,4.18
2023-03-20T20:27:18.989Z,5.03
2023-03-20T20:29:53.342Z,3.90
2023-03-20T20:32:27.919Z,4.28
2023-03-20T20:40:49.801Z,4.25
2023-03-20T20:43:39.248Z,3.67
2023-03-20T20:46:14.701Z,3.30
2023-03-20T20:48:46.589Z,3.65
2023-03-20T20:51:19.636Z,3.80
2023-03-20T20:53:51.657Z,3.73
2023-03-20T20:56:24.208Z,3.45
2023-03-20T20:58:56.136Z,3.42
2023-03-20T21:01:28.768Z,3.85
2023-03-20T21:04:01.275Z,4.25
2023-03-20T21:07:05.568Z,3.83
2023-03-20T21:09:27.451Z,3.60
2023-03-20T21:12:00.951Z,3.95
2023-03-20T21:14:33.718Z,4.20
2023-03-20T21:17:06.463Z,3.92
2023-03-20T21:19:43.339Z,4.20
2023-03-20T21:22:16.936Z,4.18
2023-03-20T21:24:53.780Z,4.20
2023-03-20T21:27:30.112Z,4.13
2023-03-20T21:30:04.287Z,3.85
2023-03-20T21:32:36.984Z,4.07
2023-03-20T21:35:10.011Z,4.03
2023-03-20T21:40:34.493Z,4.05
2023-03-20T21:43:06.619Z,3.50
2023-03-20T21:46:20.923Z,4.00
2023-03-20T21:58:09.843Z,3.70
2023-03-20T22:02:58.269Z,4.43
2023-03-20T22:09:38.731Z,3.50
2023-03-20T22:15:03.941Z,3.60
2023-03-20T22:17:52.803Z,3.78
2023-03-20T22:35:31.425Z,4.10
2023-03-20T22:38:34.481Z,3.60
2023-03-20T22:44:35.410Z,3.80
2023-03-20T22:46:46.646Z,3.90
2023-03-20T22:49:10.977Z,3.78
2023-03-20T22:51:57.424Z,3.90
2023-03-20T22:54:35.931Z,3.47
2023-03-20T22:57:08.564Z,3.20
2023-03-20T22:59:40.601Z,3.53
2023-03-20T23:02:13.224Z,3.20
2023-03-20T23:04:45.377Z,3.70
2023-03-20T23:07:17.980Z,3.60
2023-03-20T23:09:50.009Z,3.63
2023-03-20T23:12:22.589Z,3.63
2023-03-20T23:14:55.491Z,3.67
2023-03-20T23:17:28.073Z,3.33
2023-03-20T23:20:10.770Z,3.22
2023-03-20T23:22:44.258Z,3.40
2023-03-20T23:25:27.436Z,2.80
2023-03-20T23:28:03.945Z,3.20
2023-03-20T23:30:45.345Z,3.00
2023-03-20T23:33:20.572Z,3.15
2023-03-20T23:36:01.268Z,3.30
2023-03-20T23:38:41.792Z,3.30
2023-03-20T23:41:14.200Z,3.47
2023-03-20T23:43:46.830Z,2.90
2023-03-20T23:46:18.862Z,3.55
2023-03-20T23:48:51.862Z,2.80
2023-03-20T23:51:23.826Z,3.00
2023-03-20T23:53:56.433Z,3.33
2023-03-20T23:56:28.532Z,3.10
2023-03-20T23:59:14.684Z,2.92
